createdAt,value
2019-06-08T00:00:45.447Z,64.56
2019-06-08T00:03:38.893Z,63.72
2019-06-08T00:13:51.168Z,63.87
2019-06-08T00:28:51.146Z,64.04
2019-06-08T01:15:08.729Z,64.31
2019-06-08T01:18:02.981Z,61.75
2019-06-08T05:17:52.815Z,64.90
2019-06-08T05:20:43.352Z,66.55
2019-06-08T08:58:38.175Z,48.84
2019-06-08T09:01:25.064Z,42.77
2019-06-08T09:20:28.634Z,45.91
2019-06-08T09:23:21.451Z,45.62
2019-06-08T09:26:08.938Z,45.18
2019-06-08T10:39:21.949Z,35.83
2019-06-08T10:42:12.038Z,34.17
2019-06-08T10:45:03.839Z,35.35
2019-06-08T10:47:47.785Z,35.99
2019-06-08T10:50:32.374Z,35.43
2019-06-08T10:53:19.125Z,35.51
2019-06-08T10:56:09.779Z,35.82
2019-06-08T10:58:52.853Z,35.74
2019-06-08T11:01:39.925Z,30.79
2019-06-08T11:04:28.643Z,33.05
2019-06-08T11:07:16.138Z,34.22
2019-06-08T11:10:01.873Z,34.43
2019-06-08T11:12:48.556Z,33.96
2019-06-08T11:15:34.097Z,33.80
2019-06-08T11:18:24.566Z,33.43
2019-06-08T11:21:12.885Z,32.77
2019-06-08T11:24:07.651Z,33.10
2019-06-08T11:26:47.699Z,32.54
2019-06-08T11:29:32.874Z,32.44
2019-06-08T11:32:21.191Z,32.28
2019-06-08T11:35:10.642Z,32.48
2019-06-08T11:37:54.911Z,32.47
2019-06-08T11:40:42.027Z,31.92
2019-06-08T11:43:29.861Z,31.86
2019-06-08T11:46:21.261Z,31.59
2019-06-08T11:49:05.880Z,31.21
2019-06-08T11:51:53.734Z,31.79
2019-06-08T11:54:41.282Z,31.20
2019-06-08T11:57:28.357Z,31.74
2019-06-08T12:00:24.147Z,32.19
2019-06-08T12:03:08.834Z,31.62
2019-06-08T12:05:53.788Z,31.63
2019-06-08T12:08:42.818Z,30.59
2019-06-08T12:11:29.632Z,30.87
2019-06-08T12:14:17.758Z,30.73
2019-06-08T12:17:03.688Z,31.22
2019-06-08T12:19:50.422Z,30.81
2019-06-08T12:22:40.288Z,27.47
2019-06-08T12:25:41.433Z,29.89
2019-06-08T12:28:32.239Z,26.73
2019-06-08T12:31:28.099Z,26.98
2019-06-08T12:34:13.577Z,29.31
2019-06-08T12:37:02.831Z,29.37
2019-06-08T12:39:49.639Z,29.59
2019-06-08T12:45:29.734Z,29.09
2019-06-08T12:48:25.226Z,28.70
2019-06-08T12:51:09.995Z,29.27
2019-06-08T12:53:59.861Z,29.28
2019-06-08T13:03:41.193Z,29.50
2019-06-08T13:20:38.890Z,30.33
2019-06-08T13:26:33.213Z,31.21
2019-06-08T13:29:21.953Z,31.45
2019-06-08T13:32:07.881Z,31.77
2019-06-08T13:34:54.946Z,31.78
2019-06-08T13:37:42.786Z,32.29
2019-06-08T13:40:44.423Z,32.57
2019-06-08T13:43:31.335Z,30.25
2019-06-08T13:46:20.728Z,32.13
2019-06-08T13:49:05.382Z,32.26
2019-06-08T13:51:58.439Z,32.73
2019-06-08T14:03:18.210Z,32.18
2019-06-08T14:06:02.925Z,32.76
2019-06-08T14:08:53.602Z,32.98
2019-06-08T14:11:41.353Z,33.07
2019-06-08T14:14:42.745Z,32.67
2019-06-08T14:17:31.648Z,32.51
2019-06-08T14:20:34.317Z,32.23
2019-06-08T14:23:21.339Z,31.89
2019-06-08T14:26:08.346Z,31.74
2019-06-08T14:29:00.750Z,29.38
2019-06-08T14:31:44.340Z,30.50
2019-06-08T14:34:31.363Z,30.77
2019-06-08T14:37:18.271Z,30.59
2019-06-08T14:40:04.963Z,30.09
2019-06-08T14:42:51.961Z,30.17
2019-06-08T14:45:44.721Z,30.70
2019-06-08T14:48:33.873Z,30.93
2019-06-08T14:51:18.803Z,30.20
2019-06-08T14:54:07.685Z,28.39
2019-06-08T14:56:52.876Z,25.15
2019-06-08T14:59:39.883Z,26.40
2019-06-08T15:02:33.155Z,26.04
2019-06-08T15:05:21.442Z,26.35
2019-06-08T15:11:11.982Z,25.95
2019-06-08T15:14:02.453Z,26.09
2019-06-08T15:16:49.574Z,26.18
2019-06-08T15:19:40.675Z,25.82
2019-06-08T15:22:29.074Z,27.30
2019-06-08T15:25:14.113Z,23.32
2019-06-08T15:28:08.242Z,25.27
2019-06-08T15:30:53.464Z,25.05
2019-06-08T15:33:41.746Z,25.35
2019-06-08T16:09:10.217Z,27.58
2019-06-08T16:11:59.514Z,23.94
2019-06-08T16:14:43.972Z,23.44
2019-06-08T16:17:33.578Z,25.14
2019-06-08T16:24:27.766Z,24.62
2019-06-08T16:27:13.868Z,25.07
2019-06-08T16:54:19.353Z,22.91
2019-06-08T16:57:10.761Z,22.41
2019-06-08T17:06:01.504Z,22.87
2019-06-08T17:08:48.169Z,22.68
2019-06-08T17:17:28.259Z,22.41
2019-06-08T17:20:15.505Z,22.09
2019-06-08T17:23:03.232Z,22.18
2019-06-08T17:25:50.044Z,21.99
2019-06-08T17:28:37.256Z,21.94
2019-06-08T17:31:24.252Z,21.79
2019-06-08T17:34:11.408Z,21.50
2019-06-08T17:36:58.184Z,21.37
2019-06-08T17:39:44.917Z,21.87
2019-06-08T17:42:32.186Z,21.91
2019-06-08T17:45:19.033Z,21.39
2019-06-08T18:02:33.358Z,22.31
2019-06-08T18:05:18.943Z,22.61
2019-06-08T18:08:07.833Z,18.71
2019-06-08T18:22:57.834Z,25.47
2019-06-08T18:25:43.507Z,26.39
2019-06-08T18:28:39.213Z,27.12
